Time;durP1;ratioP1;P1;durP2;ratioP2;P2;SDS_P1;SDS_P2;PMS_P1;PMS_P2;Temp;Humidity;BMP_temperature;BMP_pressure;BME280_temperature;BME280_humidity;BME280_pressure;Samples;Min_cycle;Max_cycle;Signal;HPM_P1;HPM_P2
2021/08/18 00:01:33;;;;;;;;;3.33;3.33;;;;;18.12;63.41;101686.06;5057299;28;46276;-69
2021/08/18 00:03:59;;;;;;;;;3.00;3.00;;;;;18.13;63.16;101685.94;5056660;28;45502;-71
2021/08/18 00:06:24;;;;;;;;;5.00;3.00;;;;;18.10;63.37;101688.88;5056915;28;45341;-71
2021/08/18 00:08:49;;;;;;;;;4.00;3.67;;;;;18.10;63.71;101693.38;5056904;28;45409;-72
2021/08/18 00:11:15;;;;;;;;;10.33;4.67;;;;;18.05;63.83;101682.31;5056515;28;46304;-73
2021/08/18 00:13:40;;;;;;;;;3.67;2.00;;;;;18.07;63.95;101683.00;5056294;27;45546;-73
2021/08/18 00:16:06;;;;;;;;;5.00;3.00;;;;;18.04;64.08;101688.59;5056301;28;45386;-71
2021/08/18 00:18:32;;;;;;;;;4.67;4.00;;;;;18.02;64.17;101686.09;5056021;28;45443;-71
2021/08/18 00:20:57;;;;;;;;;7.33;4.00;;;;;18.02;63.72;101680.78;5055642;28;45594;-69
2021/08/18 00:23:22;;;;;;;;;4.33;3.00;;;;;18.00;64.43;101672.09;5056375;28;45745;-69
2021/08/18 00:25:48;;;;;;;;;5.00;4.00;;;;;17.97;64.23;101672.38;5056000;28;45353;-70
2021/08/18 00:28:13;;;;;;;;;4.00;4.00;;;;;17.91;64.32;101673.72;5054568;28;45586;-69
2021/08/18 00:30:39;;;;;;;;;6.33;3.00;;;;;17.90;64.35;101676.53;5056749;27;46286;-69
2021/08/18 00:33:05;;;;;;;;;6.00;5.00;;;;;17.88;64.18;101666.03;5056989;28;45625;-69
2021/08/18 00:35:30;;;;;;;;;5.00;3.67;;;;;17.90;64.31;101672.03;5054563;28;45459;-69
2021/08/18 00:37:56;;;;;;;;;8.00;4.00;;;;;17.88;64.41;101671.34;5058738;28;45416;-69
2021/08/18 00:40:21;;;;;;;;;3.00;3.00;;;;;17.81;64.66;101662.25;5057182;28;47956;-71
2021/08/18 00:42:48;;;;;;;;;4.67;4.33;;;;;17.79;64.67;101665.03;5058461;28;45364;-69
2021/08/18 00:45:15;;;;;;;;;5.67;3.33;;;;;17.74;64.86;101669.94;5055766;28;45460;-69
2021/08/18 00:47:51;;;;;;;;;3.00;3.00;;;;;17.72;64.71;101668.38;5058945;28;45610;-69
2021/08/18 00:50:23;;;;;;;;;3.00;3.00;;;;;17.68;64.91;101662.50;5057020;28;47005;-68
2021/08/18 00:52:49;;;;;;;;;3.00;3.00;;;;;17.67;64.96;101665.31;5055911;28;45436;-68
2021/08/18 00:55:19;;;;;;;;;4.33;2.33;;;;;17.63;65.26;101668.25;5056119;28;45430;-69
2021/08/18 00:57:44;;;;;;;;;5.67;4.00;;;;;17.63;65.18;101670.03;5057448;28;45463;-67
2021/08/18 01:00:13;;;;;;;;;4.67;3.00;;;;;17.67;65.19;101663.50;5055119;28;46019;-67
2021/08/18 01:02:43;;;;;;;;;3.67;3.00;;;;;17.67;65.08;101660.84;5054907;28;45350;-69
2021/08/18 01:05:19;;;;;;;;;3.33;3.00;;;;;17.74;65.16;101669.09;5034853;28;45781;-69
2021/08/18 01:07:56;;;;;;;;;6.67;4.67;;;;;17.75;65.45;101668.97;5051405;28;45512;-68
2021/08/18 01:10:30;;;;;;;;;5.67;4.00;;;;;17.79;65.30;101664.22;5055758;28;46245;-69
2021/08/18 01:12:56;;;;;;;;;3.67;3.67;;;;;17.84;65.15;101663.78;5055775;28;45430;-69
2021/08/18 01:15:24;;;;;;;;;5.00;4.00;;;;;17.83;64.90;101664.78;5055843;28;45375;-69
2021/08/18 01:17:52;;;;;;;;;7.33;4.67;;;;;17.80;64.66;101664.06;5054982;28;45444;-70
2021/08/18 01:20:21;;;;;;;;;5.00;4.00;;;;;17.80;65.30;101657.94;5057378;28;45521;-69
2021/08/18 01:22:47;;;;;;;;;6.33;5.33;;;;;17.81;64.94;101656.94;5055290;28;45519;-68
2021/08/18 01:25:13;;;;;;;;;3.00;3.00;;;;;17.80;64.86;101655.28;5057661;28;45880;-68
2021/08/18 01:27:46;;;;;;;;;3.67;3.67;;;;;17.76;64.94;101656.50;5059089;28;45470;-69
2021/08/18 01:30:13;;;;;;;;;4.00;4.00;;;;;17.77;65.37;101655.53;5058745;28;45470;-69
2021/08/18 01:32:47;;;;;;;;;1.67;0.00;;;;;17.73;65.05;101648.81;5057902;28;45444;-69
2021/08/18 01:35:17;;;;;;;;;3.67;3.67;;;;;17.72;65.06;101657.75;5058806;28;45573;-68
2021/08/18 01:37:43;;;;;;;;;4.00;3.33;;;;;17.65;65.32;101653.00;5059215;28;45404;-68
2021/08/18 01:40:09;;;;;;;;;4.67;3.67;;;;;17.63;65.23;101659.41;5058736;28;45458;-68
2021/08/18 01:42:37;;;;;;;;;4.67;3.00;;;;;17.60;65.97;101659.72;5056380;28;45663;-69
2021/08/18 01:45:03;;;;;;;;;3.33;3.33;;;;;17.56;65.95;101653.81;5058834;28;45448;-69
2021/08/18 01:47:29;;;;;;;;;6.67;6.33;;;;;17.54;65.81;101647.81;5040144;28;45389;-68
2021/08/18 01:49:54;;;;;;;;;5.67;2.33;;;;;17.54;65.94;101649.63;5058353;28;46058;-67
2021/08/18 01:52:19;;;;;;;;;4.67;3.33;;;;;17.54;65.94;101650.47;5041040;28;45328;-70
2021/08/18 01:54:45;;;;;;;;;6.00;3.67;;;;;17.55;65.94;101646.81;5059231;27;45437;-70
2021/08/18 01:57:10;;;;;;;;;3.67;3.33;;;;;17.52;66.10;101647.09;5058997;28;45691;-70
2021/08/18 01:59:35;;;;;;;;;3.33;3.00;;;;;17.53;65.85;101643.47;5056513;28;46249;-68
2021/08/18 02:02:01;;;;;;;;;5.33;4.00;;;;;17.52;65.94;101640.97;5056960;27;45329;-70
2021/08/18 02:04:26;;;;;;;;;5.33;4.00;;;;;17.56;65.81;101637.88;5059854;28;45302;-65
2021/08/18 02:06:51;;;;;;;;;7.00;3.00;;;;;17.62;65.62;101634.69;5075031;27;45472;-68
2021/08/18 02:09:17;;;;;;;;;5.33;3.00;;;;;17.66;65.42;101643.22;5057452;28;48280;-68
2021/08/18 02:11:42;;;;;;;;;3.00;3.00;;;;;17.67;65.41;101636.06;5041027;28;45337;-68
2021/08/18 02:14:07;;;;;;;;;4.33;2.00;;;;;17.67;65.20;101638.72;5057164;28;45411;-69
2021/08/18 02:16:33;;;;;;;;;3.00;2.67;;;;;17.69;65.29;101634.13;5057375;28;45457;-67
2021/08/18 02:18:58;;;;;;;;;3.00;3.00;;;;;17.77;65.15;101627.16;5057854;28;46025;-68
2021/08/18 02:21:23;;;;;;;;;3.67;2.67;;;;;17.80;64.70;101629.53;5060324;27;45633;-67
2021/08/18 02:23:49;;;;;;;;;3.00;2.67;;;;;17.82;64.53;101642.66;5057414;28;45519;-68
2021/08/18 02:26:14;;;;;;;;;5.67;3.33;;;;;17.80;64.97;101628.69;5058761;27;45403;-68
2021/08/18 02:28:39;;;;;;;;;4.00;2.00;;;;;17.81;65.26;101635.66;5057335;28;47117;-66
2021/08/18 02:31:05;;;;;;;;;3.00;3.00;;;;;17.68;65.39;101640.41;5058888;28;45621;-69
2021/08/18 02:33:30;;;;;;;;;3.00;3.00;;;;;17.60;65.58;101628.66;5058036;28;45458;-69
2021/08/18 02:35:55;;;;;;;;;7.67;5.00;;;;;17.60;65.95;101631.31;5056872;28;45365;-68
2021/08/18 02:38:21;;;;;;;;;3.00;3.00;;;;;17.57;66.35;101628.94;5057125;27;46196;-67
2021/08/18 02:40:46;;;;;;;;;3.33;2.33;;;;;17.56;66.11;101631.75;5057333;28;45498;-69
2021/08/18 02:43:12;;;;;;;;;2.67;2.67;;;;;17.46;66.31;101621.09;5057898;28;45399;-69
2021/08/18 02:45:37;;;;;;;;;3.00;2.00;;;;;17.46;66.41;101626.41;5057995;28;45550;-68
2021/08/18 02:48:03;;;;;;;;;5.33;3.00;;;;;17.48;66.17;101619.97;5056649;28;46486;-68
2021/08/18 02:50:31;;;;;;;;;3.33;3.33;;;;;17.53;66.01;101621.38;5056245;28;45584;-71
2021/08/18 02:52:56;;;;;;;;;8.00;3.67;;;;;17.49;66.07;101626.16;5057183;28;45491;-69
2021/08/18 02:55:22;;;;;;;;;3.33;3.33;;;;;17.45;66.07;101624.75;5057634;28;45397;-69
2021/08/18 02:57:47;;;;;;;;;4.00;2.00;;;;;17.43;65.93;101616.06;5039449;28;48376;-67
2021/08/18 03:00:13;;;;;;;;;2.67;2.67;;;;;17.42;66.21;101619.69;5057234;28;45389;-69
2021/08/18 03:02:39;;;;;;;;;3.00;3.00;;;;;17.41;66.18;101612.69;5057397;28;45335;-68
2021/08/18 03:05:05;;;;;;;;;2.67;2.67;;;;;17.42;66.06;101620.53;5058166;28;45579;-67
2021/08/18 03:07:30;;;;;;;;;6.67;3.00;;;;;17.40;65.99;101617.19;5057509;28;45472;-69
2021/08/18 03:09:56;;;;;;;;;4.00;3.67;;;;;17.39;65.93;101614.66;5042154;28;46061;-68
2021/08/18 03:12:21;;;;;;;;;5.00;3.67;;;;;17.40;65.84;101611.88;5039282;28;45482;-68
2021/08/18 03:14:46;;;;;;;;;6.33;3.00;;;;;17.42;65.97;101614.38;5034175;28;45511;-68
2021/08/18 03:17:12;;;;;;;;;4.00;3.00;;;;;17.40;66.12;101617.19;5057223;28;46452;-68
2021/08/18 03:19:38;;;;;;;;;4.00;4.00;;;;;17.45;65.90;101622.91;5058108;28;45405;-68
2021/08/18 03:22:03;;;;;;;;;8.00;3.67;;;;;17.48;66.17;101621.81;5056141;28;45420;-68
2021/08/18 03:24:29;;;;;;;;;3.67;3.67;;;;;17.47;66.50;101625.44;5056468;28;45302;-69
2021/08/18 03:26:54;;;;;;;;;5.67;3.33;;;;;17.51;66.17;101608.22;5042024;28;46064;-69
2021/08/18 03:29:19;;;;;;;;;2.33;2.33;;;;;17.54;65.99;101607.97;5058886;28;45365;-68
2021/08/18 03:31:45;;;;;;;;;3.33;3.00;;;;;17.54;65.91;101607.97;5057162;28;45424;-68
2021/08/18 03:34:10;;;;;;;;;5.00;3.33;;;;;17.61;66.05;101609.09;5059210;28;45470;-69
2021/08/18 03:36:35;;;;;;;;;4.67;2.67;;;;;17.65;65.98;101610.47;5057808;28;46222;-68
2021/08/18 03:39:01;;;;;;;;;6.33;3.67;;;;;17.63;66.02;101607.16;5057070;28;45432;-69
2021/08/18 03:41:26;;;;;;;;;4.00;4.00;;;;;17.58;66.01;101598.75;5057334;28;45415;-68
2021/08/18 03:43:51;;;;;;;;;4.33;3.33;;;;;17.53;66.14;101606.28;5057602;28;45457;-68
2021/08/18 03:46:17;;;;;;;;;3.00;3.00;;;;;17.52;66.14;101615.22;5057760;28;45341;-69
2021/08/18 03:48:42;;;;;;;;;5.00;3.67;;;;;17.47;66.44;101612.97;5056777;28;45569;-69
2021/08/18 03:51:08;;;;;;;;;4.33;3.00;;;;;17.44;66.30;101607.94;5057867;28;45332;-69
2021/08/18 03:53:33;;;;;;;;;5.00;4.00;;;;;17.45;66.42;101606.16;5057000;28;45537;-68
2021/08/18 03:55:59;;;;;;;;;3.33;3.00;;;;;17.45;66.34;101603.50;5057837;28;46066;-69
2021/08/18 03:58:25;;;;;;;;;4.33;3.00;;;;;17.44;66.17;101607.94;5057470;28;45287;-67
2021/08/18 04:00:50;;;;;;;;;4.00;3.00;;;;;17.44;66.21;101612.44;5056927;28;45412;-69
2021/08/18 04:03:15;;;;;;;;;5.00;3.00;;;;;17.46;66.24;101606.00;5056585;28;45412;-69
2021/08/18 04:05:41;;;;;;;;;4.00;4.00;;;;;17.51;65.95;101605.56;5055715;28;45406;-69
2021/08/18 04:08:08;;;;;;;;;8.00;5.00;;;;;17.50;65.97;101606.56;5056561;28;45346;-69
2021/08/18 04:10:34;;;;;;;;;7.00;4.00;;;;;17.48;66.12;101608.53;5056302;28;45419;-68
2021/08/18 04:13:00;;;;;;;;;7.00;4.67;;;;;17.46;65.96;101603.34;5056466;28;45577;-69
2021/08/18 04:15:48;;;;;;;;;7.00;4.00;;;;;17.45;66.16;101604.31;5056633;28;46235;-69
2021/08/18 04:18:14;;;;;;;;;3.67;3.33;;;;;17.44;66.07;101602.63;5056920;28;45464;-68
2021/08/18 04:20:39;;;;;;;;;7.00;4.00;;;;;17.46;66.10;101599.84;5055466;28;45363;-67
2021/08/18 04:23:05;;;;;;;;;6.00;3.33;;;;;17.47;66.18;101604.19;5058675;28;45482;-69
2021/08/18 04:25:31;;;;;;;;;6.00;5.00;;;;;17.48;66.24;101605.88;5055975;28;46732;-69
2021/08/18 04:27:56;;;;;;;;;4.00;4.00;;;;;17.48;66.00;101608.53;5059110;28;45837;-68
2021/08/18 04:30:23;;;;;;;;;6.00;4.00;;;;;17.47;66.20;101606.84;5056062;28;45503;-69
2021/08/18 04:32:49;;;;;;;;;6.00;6.00;;;;;17.48;66.22;101608.53;5055552;28;45364;-69
2021/08/18 04:35:16;;;;;;;;;7.00;5.67;;;;;17.48;66.29;101613.84;5054284;28;48502;-69
2021/08/18 04:37:42;;;;;;;;;7.00;5.33;;;;;17.45;66.42;101609.63;5055318;28;45609;-68
2021/08/18 04:40:10;;;;;;;;;6.00;5.00;;;;;17.45;66.30;101614.94;5056322;28;45519;-69
2021/08/18 04:42:37;;;;;;;;;8.00;5.33;;;;;17.45;66.80;101606.97;5055735;28;45530;-68
2021/08/18 04:45:08;;;;;;;;;8.67;3.67;;;;;17.45;66.82;101603.50;5054816;28;47136;-68
2021/08/18 04:47:34;;;;;;;;;5.33;5.00;;;;;17.42;66.64;101609.06;5055397;28;45451;-68
2021/08/18 04:49:59;;;;;;;;;4.00;4.00;;;;;17.41;66.76;101602.06;5055577;28;45427;-70
2021/08/18 04:52:25;;;;;;;;;5.67;4.67;;;;;17.39;66.80;101615.50;5055503;28;45590;-68
2021/08/18 04:54:51;;;;;;;;;4.00;4.00;;;;;17.36;66.93;101610.47;5055699;28;45460;-69
2021/08/18 04:57:17;;;;;;;;;4.67;4.67;;;;;17.34;66.81;101611.56;5055441;28;45562;-69
2021/08/18 04:59:42;;;;;;;;;6.67;4.67;;;;;17.35;67.01;101618.56;5054222;28;45336;-69
2021/08/18 05:02:08;;;;;;;;;5.00;4.00;;;;;17.36;66.73;101606.94;5055268;28;45498;-69
2021/08/18 05:04:33;;;;;;;;;3.33;3.33;;;;;17.42;66.88;101611.72;5057081;27;46278;-69
2021/08/18 05:06:58;;;;;;;;;6.67;5.00;;;;;17.41;66.72;101615.34;5055766;28;45342;-69
2021/08/18 05:09:24;;;;;;;;;7.00;5.33;;;;;17.40;66.52;101601.25;5055866;28;45585;-69
2021/08/18 05:11:49;;;;;;;;;6.00;5.00;;;;;17.38;66.79;101603.19;5037444;28;45496;-68
2021/08/18 05:14:14;;;;;;;;;5.00;4.33;;;;;17.40;66.79;101611.88;5056261;28;45899;-68
2021/08/18 05:16:40;;;;;;;;;5.33;3.67;;;;;17.42;66.77;101609.94;5055825;28;46161;-68
2021/08/18 05:19:05;;;;;;;;;9.00;5.50;;;;;17.44;66.73;101612.44;5055272;28;45452;-69
2021/08/18 05:21:31;;;;;;;;;3.33;3.00;;;;;17.50;66.90;101617.19;5055493;28;45384;-68
2021/08/18 05:23:56;;;;;;;;;5.33;4.33;;;;;17.46;66.80;101613.13;5054838;28;47104;-68
2021/08/18 05:26:21;;;;;;;;;6.00;4.00;;;;;17.45;66.62;101616.78;5056932;28;45380;-69
2021/08/18 05:28:47;;;;;;;;;4.33;4.33;;;;;17.43;66.81;101613.41;5038004;28;45598;-69
2021/08/18 05:31:12;;;;;;;;;8.00;6.00;;;;;17.40;66.66;101605.72;5056502;28;45531;-67
2021/08/18 05:33:37;;;;;;;;;7.00;5.00;;;;;17.42;66.96;101609.06;5055015;28;46534;-68
2021/08/18 05:36:04;;;;;;;;;6.00;5.00;;;;;17.42;66.99;101619.69;5055082;28;45657;-68
2021/08/18 05:38:29;;;;;;;;;5.33;4.33;;;;;17.44;66.75;101617.75;5054575;28;45515;-69
2021/08/18 05:40:55;;;;;;;;;6.00;5.33;;;;;17.44;66.74;101621.22;5054604;28;45552;-69
2021/08/18 05:43:20;;;;;;;;;3.33;3.33;;;;;17.44;66.95;101621.22;5057357;28;47170;-69
2021/08/18 05:45:46;;;;;;;;;3.33;3.33;;;;;17.43;66.63;101626.69;5055454;28;45494;-68
2021/08/18 05:48:11;;;;;;;;;7.67;4.33;;;;;17.43;66.87;101616.88;5056881;28;45348;-68
2021/08/18 05:50:36;;;;;;;;;5.00;3.00;;;;;17.45;66.93;101624.75;5036326;28;45493;-68
2021/08/18 05:53:02;;;;;;;;;5.67;4.67;;;;;17.43;67.04;101627.50;5056315;28;46110;-68
2021/08/18 05:55:27;;;;;;;;;4.00;4.00;;;;;17.45;67.09;101627.41;5056034;28;45397;-69
2021/08/18 05:57:52;;;;;;;;;6.67;5.67;;;;;17.47;66.91;101625.44;5055812;28;45353;-68
2021/08/18 06:00:18;;;;;;;;;6.67;5.33;;;;;17.48;66.85;101624.47;5037135;28;45713;-69
2021/08/18 06:02:43;;;;;;;;;6.33;5.00;;;;;17.48;67.06;101630.59;5053953;28;45502;-68
2021/08/18 06:05:09;;;;;;;;;7.00;4.00;;;;;17.49;67.15;101623.50;5054572;28;45292;-69
2021/08/18 06:07:35;;;;;;;;;5.67;5.67;;;;;17.57;67.05;101620.97;5054887;28;45464;-69
2021/08/18 06:10:00;;;;;;;;;5.33;4.00;;;;;17.64;66.88;101619.47;5055110;28;45616;-68
2021/08/18 06:12:25;;;;;;;;;4.00;4.00;;;;;17.68;66.77;101630.63;5058790;28;46426;-68
2021/08/18 06:14:51;;;;;;;;;8.00;4.33;;;;;17.70;66.47;101627.84;5057817;28;45580;-68
2021/08/18 06:17:16;;;;;;;;;5.00;4.33;;;;;17.69;66.84;101618.19;5059540;28;45381;-68
2021/08/18 06:19:41;;;;;;;;;6.33;5.33;;;;;17.68;66.63;101625.31;5059202;28;45523;-69
2021/08/18 06:22:07;;;;;;;;;5.33;5.33;;;;;17.67;66.80;101638.72;5060305;28;46362;-68
2021/08/18 06:24:42;;;;;;;;;4.67;3.00;;;;;17.70;66.62;101641.13;5059182;28;45475;-69
2021/08/18 06:27:10;;;;;;;;;3.33;3.33;;;;;17.79;66.45;101637.63;5058002;28;45536;-68
2021/08/18 06:29:36;;;;;;;;;6.00;5.00;;;;;17.81;66.59;101630.34;5057380;28;45484;-68
2021/08/18 06:32:03;;;;;;;;;5.67;3.33;;;;;17.81;66.34;101635.66;5057526;27;46941;-67
2021/08/18 06:34:28;;;;;;;;;6.00;6.00;;;;;17.79;66.41;101633.16;5057830;28;45332;-68
2021/08/18 06:36:53;;;;;;;;;6.50;4.00;;;;;17.78;66.38;101635.97;5059838;28;45529;-68
2021/08/18 06:39:18;;;;;;;;;6.67;5.67;;;;;17.82;66.36;101642.66;5058095;28;45436;-69
2021/08/18 06:41:44;;;;;;;;;7.00;7.00;;;;;17.84;66.18;101635.41;5057286;28;45380;-68
2021/08/18 06:44:09;;;;;;;;;4.33;4.33;;;;;17.86;66.20;101638.75;5058254;28;45381;-68
2021/08/18 06:46:35;;;;;;;;;5.33;4.33;;;;;17.84;66.03;101635.41;5058063;28;45486;-69
2021/08/18 06:49:00;;;;;;;;;6.67;4.33;;;;;17.90;66.10;101644.63;5041696;28;45625;-69
2021/08/18 06:51:25;;;;;;;;;5.00;3.00;;;;;17.94;66.04;101636.28;5057989;28;45372;-68
2021/08/18 06:53:51;;;;;;;;;5.00;3.67;;;;;17.99;65.67;101638.50;5057299;28;45304;-68
2021/08/18 06:56:16;;;;;;;;;8.00;4.00;;;;;18.02;65.80;101640.03;5058005;28;47691;-68
2021/08/18 06:58:41;;;;;;;;;5.67;5.00;;;;;18.06;65.73;101636.97;5057915;28;45314;-69
2021/08/18 07:01:07;;;;;;;;;5.67;5.67;;;;;18.12;65.64;101647.03;5057478;28;46037;-70
2021/08/18 07:03:33;;;;;;;;;7.00;5.00;;;;;18.18;65.33;101642.97;5057834;28;45404;-69
2021/08/18 07:05:58;;;;;;;;;9.67;4.33;;;;;18.23;65.14;101650.53;5057073;28;45310;-68
2021/08/18 07:08:24;;;;;;;;;4.67;3.67;;;;;18.21;65.08;101648.00;5058104;28;45431;-69
2021/08/18 07:10:51;;;;;;;;;25.67;21.33;;;;;18.21;65.00;101648.00;5057595;28;45428;-70
2021/08/18 07:13:17;;;;;;;;;39.00;32.67;;;;;18.26;65.21;101645.75;5055620;28;45490;-69
2021/08/18 07:15:42;;;;;;;;;16.33;12.33;;;;;18.31;65.13;101648.00;5057848;28;45423;-68
2021/08/18 07:18:08;;;;;;;;;5.33;4.00;;;;;18.34;65.11;101647.69;5056754;28;45460;-69
2021/08/18 07:20:33;;;;;;;;;5.67;5.33;;;;;18.36;64.86;101644.88;5056196;28;46113;-68
2021/08/18 07:22:58;;;;;;;;;9.00;7.00;;;;;18.37;64.92;101649.25;5056378;28;45663;-69
2021/08/18 07:25:23;;;;;;;;;5.00;3.33;;;;;18.38;64.98;101649.09;5057062;28;45451;-68
2021/08/18 07:27:49;;;;;;;;;5.33;5.33;;;;;18.40;64.80;101641.81;5056937;28;47522;-69
2021/08/18 07:30:14;;;;;;;;;27.00;22.00;;;;;18.49;64.76;101640.13;5056728;28;45900;-68
2021/08/18 07:32:40;;;;;;;;;42.67;33.33;;;;;18.61;64.47;101644.28;5055971;28;45317;-68
2021/08/18 07:35:06;;;;;;;;;9.00;7.00;;;;;18.71;64.45;101638.09;5057542;28;45314;-68
2021/08/18 07:37:32;;;;;;;;;12.67;9.33;;;;;18.79;64.53;101638.22;5058925;28;45388;-69
2021/08/18 07:39:58;;;;;;;;;78.75;59.25;;;;;18.83;64.02;101636.94;5057219;28;45940;-69
2021/08/18 07:42:24;;;;;;;;;7.00;6.00;;;;;18.94;63.53;101642.09;5057586;28;45547;-68
2021/08/18 07:44:50;;;;;;;;;6.00;6.00;;;;;19.03;63.48;101643.06;5056725;28;45511;-68
2021/08/18 07:47:16;;;;;;;;;6.67;6.00;;;;;19.08;63.34;101640.78;5056893;28;45526;-69
2021/08/18 07:49:41;;;;;;;;;11.33;6.33;;;;;19.11;63.40;101644.94;5056919;27;45461;-70
2021/08/18 07:52:07;;;;;;;;;4.00;4.00;;;;;19.13;63.14;101643.00;5057002;28;45407;-69
2021/08/18 07:54:33;;;;;;;;;3.67;3.67;;;;;19.16;62.91;101641.84;5057273;28;45413;-68
2021/08/18 07:56:59;;;;;;;;;5.00;4.00;;;;;19.13;62.96;101635.00;5056306;28;45483;-70
2021/08/18 07:59:24;;;;;;;;;6.00;5.00;;;;;19.15;63.05;101635.72;5062435;27;45978;-67
2021/08/18 08:01:49;;;;;;;;;4.33;4.33;;;;;19.24;62.67;101634.81;5060111;28;45465;-68
2021/08/18 08:04:15;;;;;;;;;6.00;5.67;;;;;19.35;62.62;101648.91;5057191;28;45604;-69
2021/08/18 08:06:40;;;;;;;;;8.33;4.33;;;;;19.46;62.17;101635.38;5057962;28;45304;-69
2021/08/18 08:09:05;;;;;;;;;4.00;4.00;;;;;19.57;62.04;101629.81;5038579;28;55694;-68
2021/08/18 08:11:31;;;;;;;;;5.00;5.00;;;;;19.69;62.11;101633.09;5057991;28;45322;-68
2021/08/18 08:13:56;;;;;;;;;8.33;5.00;;;;;19.77;61.82;101629.66;5058845;28;46035;-68
2021/08/18 08:16:21;;;;;;;;;6.67;5.00;;;;;19.82;61.36;101624.75;5060143;28;45251;-68
2021/08/18 08:18:47;;;;;;;;;5.00;4.33;;;;;19.92;62.01;101632.69;5059120;28;45414;-69
2021/08/18 08:21:13;;;;;;;;;6.67;4.00;;;;;20.01;60.53;101630.94;5056995;28;45490;-68
2021/08/18 08:23:38;;;;;;;;;5.00;3.67;;;;;20.00;60.81;101627.41;5056260;28;45579;-67
2021/08/18 08:26:03;;;;;;;;;3.00;3.00;;;;;20.07;60.32;101633.81;5056646;28;45237;-68
2021/08/18 08:28:29;;;;;;;;;5.00;3.67;;;;;20.14;60.64;101635.88;5057575;28;45906;-68
2021/08/18 08:30:54;;;;;;;;;5.00;4.00;;;;;20.20;60.21;101636.09;5056202;28;45424;-68
2021/08/18 08:33:20;;;;;;;;;4.00;4.00;;;;;20.24;59.98;101636.63;5039888;28;45811;-69
2021/08/18 08:35:45;;;;;;;;;4.33;4.00;;;;;20.32;60.64;101633.13;5055648;28;45499;-69
2021/08/18 08:38:10;;;;;;;;;4.00;4.00;;;;;20.34;60.05;101640.00;5055971;28;45576;-68
2021/08/18 08:40:37;;;;;;;;;3.00;3.00;;;;;20.34;60.86;101637.31;5056130;28;45413;-68
2021/08/18 08:43:05;;;;;;;;;4.67;4.67;;;;;20.38;60.20;101641.38;5056503;28;45412;-68
2021/08/18 08:45:32;;;;;;;;;4.00;4.00;;;;;20.33;59.94;101632.16;5055862;28;45403;-67
2021/08/18 08:47:58;;;;;;;;;4.00;4.00;;;;;20.29;59.93;101639.66;5055360;28;46259;-69
2021/08/18 08:50:24;;;;;;;;;3.33;3.00;;;;;20.27;59.81;101645.13;5056633;28;45347;-68
2021/08/18 08:52:49;;;;;;;;;5.00;5.00;;;;;20.26;59.54;101650.63;5057993;28;45408;-69
2021/08/18 08:55:14;;;;;;;;;4.33;4.00;;;;;20.20;59.63;101646.75;5057854;28;46538;-68
2021/08/18 08:57:51;;;;;;;;;4.00;3.00;;;;;20.18;59.67;101654.06;5057852;28;47050;-69
2021/08/18 09:00:18;;;;;;;;;4.67;4.00;;;;;20.17;59.84;101647.03;5055484;28;45340;-69
2021/08/18 09:02:44;;;;;;;;;5.67;5.00;;;;;20.13;59.85;101643.00;5055686;28;45440;-68
2021/08/18 09:05:09;;;;;;;;;5.00;4.33;;;;;20.09;59.59;101645.16;5056722;28;45384;-69
2021/08/18 09:07:35;;;;;;;;;5.00;5.00;;;;;20.09;60.16;101645.16;5056119;28;45366;-67
2021/08/18 09:10:04;;;;;;;;;4.00;3.67;;;;;20.11;59.82;101643.16;5056236;28;45301;-68
2021/08/18 09:12:37;;;;;;;;;6.33;4.00;;;;;20.11;59.78;101632.50;5038571;28;45561;-69
2021/08/18 09:15:17;;;;;;;;;4.00;4.00;;;;;20.15;59.63;101635.72;5053310;28;45366;-69
2021/08/18 09:17:45;;;;;;;;;5.67;4.00;;;;;20.09;59.30;101649.66;5055114;28;46152;-68
2021/08/18 09:20:15;;;;;;;;;9.67;5.67;;;;;20.09;59.25;101644.31;5057821;28;45429;-69
2021/08/18 09:22:45;;;;;;;;;6.00;6.00;;;;;20.08;59.63;101637.31;5055966;28;45491;-68
2021/08/18 09:25:29;;;;;;;;;6.67;4.33;;;;;20.05;59.61;101638.44;5056408;28;45457;-69
2021/08/18 09:28:01;;;;;;;;;5.00;4.00;;;;;20.06;59.40;101636.63;5055223;28;46747;-68
2021/08/18 09:30:32;;;;;;;;;6.00;5.00;;;;;20.08;59.33;101631.97;5037582;28;45408;-68
2021/08/18 09:32:59;;;;;;;;;5.00;4.00;;;;;20.06;59.19;101632.13;5055023;28;45222;-69
2021/08/18 09:35:27;;;;;;;;;6.00;4.00;;;;;20.05;59.73;101638.44;5055969;28;45540;-69
2021/08/18 09:38:04;;;;;;;;;3.67;3.00;;;;;20.08;59.29;101638.16;5055488;28;46926;-68
2021/08/18 09:40:35;;;;;;;;;5.00;5.00;;;;;20.08;59.38;101637.31;5056892;27;45484;-69
2021/08/18 09:43:17;;;;;;;;;4.00;4.00;;;;;20.07;58.99;101636.47;5055211;28;45330;-68
2021/08/18 09:45:44;;;;;;;;;5.00;4.00;;;;;20.14;59.05;101636.69;5057005;28;45483;-69
2021/08/18 09:48:16;;;;;;;;;4.00;4.00;;;;;20.26;58.59;101634.59;5058944;28;46512;-69
2021/08/18 09:51:03;;;;;;;;;4.00;3.00;;;;;20.37;58.89;101623.69;5057844;28;45487;-67
2021/08/18 09:53:33;;;;;;;;;7.67;5.33;;;;;20.52;58.93;101628.44;5060719;27;45294;-69
2021/08/18 09:56:03;;;;;;;;;5.67;4.33;;;;;20.66;58.44;101630.53;5059642;28;45432;-68
2021/08/18 09:58:31;;;;;;;;;7.00;5.67;;;;;20.72;57.84;101629.06;5058344;28;46264;-69
2021/08/18 10:01:00;;;;;;;;;6.00;4.00;;;;;20.68;58.13;101623.22;5058348;28;45443;-68
2021/08/18 10:03:26;;;;;;;;;6.00;5.00;;;;;20.64;57.76;101626.34;5059070;28;45365;-68
2021/08/18 10:05:54;;;;;;;;;3.67;3.67;;;;;20.61;57.68;101623.00;5036940;28;45305;-68
2021/08/18 10:08:21;;;;;;;;;3.00;3.00;;;;;20.67;57.96;101626.03;5058478;28;46347;-68
2021/08/18 10:10:47;;;;;;;;;4.33;4.33;;;;;20.73;57.43;101626.28;5040395;28;45493;-69
2021/08/18 10:13:14;;;;;;;;;5.00;4.00;;;;;20.79;57.15;101626.63;5058862;28;45471;-68
2021/08/18 10:15:40;;;;;;;;;4.33;4.00;;;;;20.82;57.66;101629.78;5059024;28;45381;-69
2021/08/18 10:18:07;;;;;;;;;3.00;3.00;;;;;20.86;57.68;101628.50;5058842;28;45442;-68
2021/08/18 10:20:34;;;;;;;;;3.33;3.33;;;;;20.87;57.48;101629.31;5055731;28;45387;-68
2021/08/18 10:23:12;;;;;;;;;4.67;4.00;;;;;20.85;57.56;101629.50;5058474;28;45350;-69
2021/08/18 10:25:49;;;;;;;;;5.33;4.00;;;;;20.82;57.74;101632.47;5058233;28;45294;-68
2021/08/18 10:28:16;;;;;;;;;4.00;3.00;;;;;20.81;57.43;101629.97;5059128;28;46205;-69
2021/08/18 10:30:44;;;;;;;;;4.00;3.00;;;;;20.80;57.52;101637.16;5059868;28;45492;-68
2021/08/18 10:33:10;;;;;;;;;3.00;3.00;;;;;20.79;57.22;101635.47;5059155;28;45331;-69
2021/08/18 10:35:35;;;;;;;;;5.00;3.33;;;;;20.76;57.76;101628.63;5057079;28;45531;-68
2021/08/18 10:38:28;;;;;;;;;4.67;3.00;;;;;20.76;58.07;101636.63;5058332;27;45556;-67
2021/08/18 10:40:55;;;;;;;;;3.00;3.00;;;;;20.76;59.05;101635.78;5057618;28;45427;-68
2021/08/18 10:43:59;;;;;;;;;3.00;3.00;;;;;20.75;58.51;101621.59;5058308;28;45388;-67
2021/08/18 10:46:25;;;;;;;;;2.00;2.00;;;;;20.75;58.07;101623.44;5055913;28;45573;-69
2021/08/18 10:48:53;;;;;;;;;3.00;1.67;;;;;20.74;58.25;101619.09;5057475;28;46653;-67
2021/08/18 10:51:37;;;;;;;;;0.33;0.33;;;;;20.79;57.93;101614.09;5058265;28;45415;-70
2021/08/18 10:54:27;;;;;;;;;2.33;1.00;;;;;20.89;57.45;101614.00;5057858;28;45355;-68
2021/08/18 10:56:59;;;;;;;;;1.00;1.00;;;;;21.03;57.28;101609.84;5053165;28;45572;-68
2021/08/18 10:59:36;;;;;;;;;2.33;1.00;;;;;21.19;57.30;101604.56;5058242;28;47170;-68
2021/08/18 11:02:09;;;;;;;;;1.00;1.00;;;;;21.36;56.87;101597.44;5057917;28;46013;-68
2021/08/18 11:04:45;;;;;;;;;1.00;1.00;;;;;21.57;56.26;101601.50;5057845;28;45552;-68
2021/08/18 11:07:12;;;;;;;;;1.00;1.00;;;;;21.73;55.70;101595.31;5058109;28;45425;-68
2021/08/18 11:10:00;;;;;;;;;1.00;1.00;;;;;21.84;55.22;101597.66;5057605;28;46353;-68
2021/08/18 11:12:41;;;;;;;;;3.00;3.00;;;;;21.91;54.85;101597.84;5072048;28;45387;-68
2021/08/18 11:15:26;;;;;;;;;1.67;1.67;;;;;21.91;54.42;101590.66;5057956;28;45444;-67
2021/08/18 11:17:57;;;;;;;;;4.67;2.00;;;;;21.95;54.26;101593.00;5045251;28;45619;-67
2021/08/18 11:20:25;;;;;;;;;4.33;4.33;;;;;22.00;54.26;101590.66;5057329;28;46940;-68
2021/08/18 11:22:54;;;;;;;;;4.33;3.00;;;;;22.08;54.04;101598.66;5057413;28;45398;-67
2021/08/18 11:25:20;;;;;;;;;2.00;1.67;;;;;22.13;54.27;101590.13;5057257;28;45425;-68